Time;durP1;ratioP1;P1;durP2;ratioP2;P2;SDS_P1;SDS_P2;PMS_P1;PMS_P2;Temp;Humidity;BMP_temperature;BMP_pressure;BME280_temperature;BME280_humidity;BME280_pressure;Samples;Min_cycle;Max_cycle;Signal;HPM_P1;HPM_P2
2023/01/26 00:00:50;;;;;;;27.52;15.52;;;0.20;99.90;;;;;;5071235;28;20477;-58
2023/01/26 00:03:16;;;;;;;29.90;15.05;;;0.10;99.90;;;;;;5073013;28;20077;-55
2023/01/26 00:05:42;;;;;;;28.23;15.85;;;0.20;99.90;;;;;;5072837;28;20029;-56
2023/01/26 00:08:08;;;;;;;25.67;14.77;;;0.10;99.90;;;;;;5072593;28;20029;-58
2023/01/26 00:10:39;;;;;;;31.77;15.45;;;0.00;99.90;;;;;;5072790;28;20070;-58
2023/01/26 00:13:05;;;;;;;32.97;15.65;;;0.00;99.90;;;;;;5072434;28;20024;-55
2023/01/26 00:15:32;;;;;;;26.23;15.40;;;-0.10;99.90;;;;;;5072799;28;20066;-57
2023/01/26 00:17:58;;;;;;;27.73;15.35;;;-0.10;99.90;;;;;;5072601;28;20378;-56
2023/01/26 00:20:24;;;;;;;25.58;14.43;;;0.00;99.90;;;;;;5072565;28;20157;-57
2023/01/26 00:22:50;;;;;;;29.55;17.05;;;0.00;99.90;;;;;;5072485;28;20115;-57
2023/01/26 00:25:15;;;;;;;26.27;15.35;;;0.00;99.90;;;;;;5072463;28;20258;-58
2023/01/26 00:27:41;;;;;;;24.67;14.13;;;-0.10;99.90;;;;;;5072415;28;20037;-55
2023/01/26 00:30:07;;;;;;;26.70;16.33;;;-0.10;99.90;;;;;;5072243;28;20525;-57
2023/01/26 00:32:36;;;;;;;24.40;14.57;;;-0.10;99.90;;;;;;5071038;28;20047;-55
2023/01/26 00:35:03;;;;;;;26.42;13.90;;;0.00;99.90;;;;;;5072278;28;20032;-54
2023/01/26 00:37:29;;;;;;;30.27;15.80;;;-0.10;99.90;;;;;;5072341;28;20021;-57
2023/01/26 00:39:55;;;;;;;24.23;13.05;;;-0.10;99.90;;;;;;5072090;28;20020;-58
2023/01/26 00:42:22;;;;;;;23.60;13.95;;;-0.10;99.90;;;;;;5072244;28;20028;-57
2023/01/26 00:44:49;;;;;;;25.83;14.20;;;-0.10;99.90;;;;;;5072082;28;20028;-55
2023/01/26 00:47:18;;;;;;;20.60;13.25;;;-0.10;99.90;;;;;;5070671;28;20471;-54
2023/01/26 00:49:44;;;;;;;24.02;14.75;;;0.00;99.90;;;;;;5071996;28;20484;-56
2023/01/26 00:52:11;;;;;;;22.15;13.60;;;0.10;99.90;;;;;;5072393;28;20039;-58
2023/01/26 00:54:37;;;;;;;21.00;13.90;;;0.00;99.90;;;;;;5071443;28;20103;-57
2023/01/26 00:57:02;;;;;;;21.55;12.80;;;-0.10;99.90;;;;;;5071262;28;20508;-57
2023/01/26 00:59:31;;;;;;;20.77;13.35;;;-0.10;99.90;;;;;;5071385;28;20060;-56
2023/01/26 01:01:57;;;;;;;21.75;12.60;;;0.00;99.90;;;;;;5071718;28;20095;-55
2023/01/26 01:04:23;;;;;;;22.35;12.25;;;0.10;99.90;;;;;;5071109;28;20039;-57
2023/01/26 01:06:48;;;;;;;19.42;13.00;;;0.10;99.90;;;;;;5069528;28;20393;-58
2023/01/26 01:09:14;;;;;;;21.10;13.02;;;0.10;99.90;;;;;;5070741;28;20136;-53
2023/01/26 01:11:41;;;;;;;23.20;13.18;;;0.00;99.90;;;;;;5071028;28;20031;-55
2023/01/26 01:14:07;;;;;;;20.70;12.85;;;0.10;99.90;;;;;;5071180;28;20027;-57
2023/01/26 01:16:33;;;;;;;29.15;15.50;;;0.10;99.90;;;;;;5071607;28;20460;-57
2023/01/26 01:18:58;;;;;;;22.27;13.77;;;0.00;99.90;;;;;;5071434;28;20021;-56
2023/01/26 01:21:24;;;;;;;24.23;12.90;;;0.00;99.90;;;;;;5071330;28;20391;-55
2023/01/26 01:23:50;;;;;;;23.13;13.65;;;0.00;99.90;;;;;;5071150;28;20029;-55
2023/01/26 01:26:16;;;;;;;23.05;13.20;;;0.10;99.90;;;;;;5071227;28;20025;-54
2023/01/26 01:28:42;;;;;;;22.85;13.63;;;0.00;99.90;;;;;;5071178;28;20091;-55
2023/01/26 01:31:11;;;;;;;24.75;14.30;;;0.00;99.90;;;;;;5071259;28;20454;-55
2023/01/26 01:33:37;;;;;;;26.83;15.15;;;0.00;99.90;;;;;;5069957;28;20028;-58
2023/01/26 01:36:06;;;;;;;21.80;13.40;;;0.00;99.90;;;;;;5071093;28;20047;-56
2023/01/26 01:38:32;;;;;;;23.70;13.13;;;0.00;99.90;;;;;;5071088;28;20028;-58
2023/01/26 01:40:58;;;;;;;23.08;13.90;;;0.00;99.90;;;;;;5071049;28;20024;-56
2023/01/26 01:43:25;;;;;;;26.27;13.43;;;0.00;99.90;;;;;;5071443;28;20379;-58
2023/01/26 01:45:51;;;;;;;28.25;14.98;;;-0.10;99.90;;;;;;5071072;28;20036;-54
2023/01/26 01:48:26;;;;;;;24.15;13.27;;;-0.20;99.90;;;;;;5071399;28;20036;-53
2023/01/26 01:50:56;;;;;;;22.75;13.95;;;-0.10;99.90;;;;;;5071096;28;20025;-56
2023/01/26 01:53:30;;;;;;;25.63;13.90;;;-0.10;99.90;;;;;;5070807;28;20111;-54
2023/01/26 01:56:03;;;;;;;23.48;13.63;;;-0.10;99.90;;;;;;5071101;28;20025;-56
2023/01/26 01:58:32;;;;;;;21.90;13.73;;;-0.10;99.90;;;;;;5071291;28;20065;-58
2023/01/26 02:00:58;;;;;;;25.00;14.82;;;-0.10;99.90;;;;;;5069801;28;20064;-56
2023/01/26 02:03:25;;;;;;;21.50;12.65;;;-0.10;99.90;;;;;;5071432;28;20079;-57
2023/01/26 02:05:54;;;;;;;22.20;13.30;;;-0.10;99.90;;;;;;5071126;28;20025;-54
2023/01/26 02:08:32;;;;;;;21.90;12.43;;;0.00;99.90;;;;;;5071173;28;20063;-57
2023/01/26 02:11:04;;;;;;;23.77;14.32;;;0.00;99.90;;;;;;5071113;28;20166;-56
2023/01/26 02:13:31;;;;;;;27.23;14.45;;;0.00;99.90;;;;;;5071087;28;20029;-55
2023/01/26 02:15:58;;;;;;;22.40;12.60;;;0.00;99.90;;;;;;5071029;28;20115;-53
2023/01/26 02:18:24;;;;;;;24.13;13.07;;;0.00;99.90;;;;;;5070727;28;20044;-56
2023/01/26 02:21:02;;;;;;;25.60;13.45;;;0.00;99.90;;;;;;5070723;28;20032;-57
2023/01/26 02:23:36;;;;;;;19.83;12.82;;;0.00;99.90;;;;;;5071003;28;20068;-55
2023/01/26 02:26:10;;;;;;;22.63;13.52;;;0.00;99.90;;;;;;5074596;28;20098;-56
2023/01/26 02:28:37;;;;;;;23.92;12.38;;;-0.10;99.90;;;;;;5074799;28;20021;-57
2023/01/26 02:31:04;;;;;;;19.10;11.05;;;0.00;99.90;;;;;;5074417;28;20058;-57
2023/01/26 02:33:31;;;;;;;17.30;10.75;;;-0.10;99.90;;;;;;5074516;28;20032;-57
2023/01/26 02:35:58;;;;;;;19.92;12.75;;;-0.10;99.90;;;;;;5074519;28;20020;-54
2023/01/26 02:38:29;;;;;;;21.35;11.38;;;0.00;99.90;;;;;;5074615;28;20122;-58
2023/01/26 02:41:05;;;;;;;20.15;11.23;;;0.00;99.90;;;;;;5074253;28;20016;-57
2023/01/26 02:43:31;;;;;;;23.40;11.68;;;0.00;99.90;;;;;;5074305;28;20419;-57
2023/01/26 02:45:57;;;;;;;20.02;12.02;;;0.00;99.90;;;;;;5074399;28;20056;-54
2023/01/26 02:51:08;;;;;;;20.13;12.00;;;0.00;99.90;;;;;;5074163;28;20031;-57
2023/01/26 02:53:33;;;;;;;20.73;11.48;;;-0.10;99.90;;;;;;5074320;28;20025;-57
2023/01/26 02:55:59;;;;;;;18.65;10.18;;;-0.10;99.90;;;;;;5074170;28;20074;-54
2023/01/26 02:58:24;;;;;;;34.63;12.77;;;-0.10;99.90;;;;;;5074116;28;20082;-56
2023/01/26 03:00:50;;;;;;;18.75;12.00;;;0.00;99.90;;;;;;5074144;28;20501;-57
2023/01/26 03:03:22;;;;;;;18.60;10.52;;;-0.10;99.90;;;;;;5074065;28;20040;-54
2023/01/26 03:05:48;;;;;;;17.40;10.93;;;-0.10;99.90;;;;;;5073935;28;20483;-57
2023/01/26 03:08:14;;;;;;;21.00;11.40;;;-0.10;99.90;;;;;;5073891;28;20049;-54
2023/01/26 03:10:40;;;;;;;22.17;12.32;;;-0.10;99.90;;;;;;5073852;28;20028;-55
2023/01/26 03:13:06;;;;;;;24.15;12.32;;;-0.20;99.90;;;;;;5073827;28;20016;-57
2023/01/26 03:29:27;;;;;;;23.70;12.65;;;0.00;99.90;;;;;;5073755;28;20047;-54
2023/01/26 03:31:53;;;;;;;34.05;14.50;;;0.00;99.90;;;;;;5073313;28;20111;-57
2023/01/26 03:34:19;;;;;;;17.58;11.13;;;0.10;99.90;;;;;;5073672;28;20108;-55
2023/01/26 03:36:46;;;;;;;17.27;9.75;;;0.10;99.90;;;;;;5072852;28;20036;-54
2023/01/26 03:41:06;;;;;;;18.83;11.27;;;0.20;99.90;;;;;;5072039;28;20020;-57
2023/01/26 03:58:23;;;;;;;16.67;9.60;;;0.10;99.90;;;;;;5072994;28;20090;-55
2023/01/26 04:00:49;;;;;;;24.48;10.60;;;0.10;99.90;;;;;;5072889;28;20028;-57
2023/01/26 04:08:45;;;;;;;19.08;10.95;;;0.10;99.90;;;;;;5072437;28;20055;-57
2023/01/26 04:11:12;;;;;;;15.45;9.82;;;0.10;99.90;;;;;;5072813;28;20107;-53
2023/01/26 04:21:50;;;;;;;19.73;11.63;;;0.10;99.90;;;;;;5072453;28;20416;-54
2023/01/26 04:24:16;;;;;;;18.23;9.85;;;0.00;99.90;;;;;;5072653;28;20037;-57
2023/01/26 04:26:42;;;;;;;18.05;11.20;;;0.10;99.90;;;;;;5070869;28;20033;-54
2023/01/26 04:29:13;;;;;;;16.98;9.77;;;0.00;99.90;;;;;;5072318;28;20103;-52
2023/01/26 04:31:40;;;;;;;15.90;9.13;;;0.00;99.90;;;;;;5072027;28;20028;-57
2023/01/26 04:34:09;;;;;;;16.05;9.55;;;0.00;99.90;;;;;;5072215;28;20013;-54
2023/01/26 04:36:35;;;;;;;15.60;9.93;;;-0.10;99.90;;;;;;5072109;28;20463;-57
2023/01/26 04:39:01;;;;;;;17.70;11.30;;;-0.10;99.90;;;;;;5071955;28;20103;-56
2023/01/26 04:41:29;;;;;;;14.07;9.02;;;0.10;99.90;;;;;;5071857;28;20033;-56
2023/01/26 04:43:54;;;;;;;17.42;9.50;;;0.00;99.90;;;;;;5071234;28;20037;-55
2023/01/26 04:46:20;;;;;;;20.70;11.50;;;0.00;99.90;;;;;;5071550;28;20039;-56
2023/01/26 04:48:46;;;;;;;22.85;13.90;;;0.10;99.90;;;;;;5070673;28;20056;-56
2023/01/26 04:51:14;;;;;;;16.23;9.77;;;0.00;99.90;;;;;;5072820;28;20474;-56
2023/01/26 04:53:40;;;;;;;64.55;26.92;;;0.00;99.90;;;;;;5072659;28;20028;-55
2023/01/26 04:56:08;;;;;;;16.70;10.07;;;0.00;99.90;;;;;;5072081;28;20609;-57
2023/01/26 04:58:34;;;;;;;18.08;10.23;;;0.00;99.90;;;;;;5071762;28;20043;-54
2023/01/26 05:00:59;;;;;;;13.07;8.15;;;-0.10;99.90;;;;;;5071844;28;20032;-54
2023/01/26 05:03:25;;;;;;;17.80;10.45;;;0.00;99.90;;;;;;5072227;28;20027;-57
2023/01/26 05:05:53;;;;;;;16.75;8.57;;;-0.10;99.90;;;;;;5072081;28;20353;-58
2023/01/26 05:08:20;;;;;;;15.65;9.13;;;-0.10;99.90;;;;;;5071763;28;20441;-55
2023/01/26 05:10:46;;;;;;;16.08;9.85;;;-0.20;99.90;;;;;;5071456;28;20104;-58
2023/01/26 05:13:13;;;;;;;14.07;9.05;;;-0.10;99.90;;;;;;5071711;28;20431;-54
2023/01/26 05:15:39;;;;;;;9.52;7.57;;;-0.10;99.90;;;;;;5070464;28;20029;-59
2023/01/26 05:18:05;;;;;;;14.52;8.45;;;0.00;99.90;;;;;;5071447;28;20020;-55
2023/01/26 05:20:30;;;;;;;15.23;10.05;;;0.00;99.90;;;;;;5072101;28;20498;-57
2023/01/26 05:22:56;;;;;;;10.80;7.80;;;0.00;99.90;;;;;;5071542;28;20036;-58
2023/01/26 05:25:22;;;;;;;15.02;9.90;;;0.00;99.90;;;;;;5071527;28;20035;-56
2023/01/26 05:27:48;;;;;;;12.50;8.15;;;0.00;99.90;;;;;;5071834;28;20154;-57
2023/01/26 05:30:15;;;;;;;13.13;7.82;;;0.10;99.90;;;;;;5071550;28;20104;-57
2023/01/26 05:32:40;;;;;;;11.90;8.40;;;0.10;99.90;;;;;;5071749;28;20063;-57
2023/01/26 05:35:07;;;;;;;14.07;8.48;;;0.00;99.90;;;;;;5071400;28;20079;-53
2023/01/26 05:37:33;;;;;;;10.00;6.30;;;0.00;99.90;;;;;;5071557;28;20070;-56
2023/01/26 05:39:58;;;;;;;13.55;7.68;;;0.00;99.90;;;;;;5071380;28;20107;-58
2023/01/26 05:42:24;;;;;;;12.52;8.35;;;0.00;99.90;;;;;;5071522;28;20028;-56
2023/01/26 05:44:50;;;;;;;11.32;7.53;;;0.00;99.90;;;;;;5071321;28;20051;-55
2023/01/26 05:47:16;;;;;;;14.43;8.25;;;0.00;99.90;;;;;;5071430;28;20020;-59
2023/01/26 05:49:44;;;;;;;11.85;7.07;;;0.10;99.90;;;;;;5071249;28;20025;-58
2023/01/26 05:52:14;;;;;;;14.32;7.72;;;0.10;99.90;;;;;;5071057;28;20024;-58
2023/01/26 05:54:40;;;;;;;10.93;7.78;;;0.00;99.90;;;;;;5071521;28;20029;-56
2023/01/26 05:57:06;;;;;;;10.63;7.75;;;0.00;99.90;;;;;;5071193;28;20341;-57
2023/01/26 05:59:32;;;;;;;15.32;9.40;;;0.00;99.90;;;;;;5072702;28;20013;-56
2023/01/26 06:01:58;;;;;;;12.60;8.25;;;0.00;99.90;;;;;;5075004;28;20413;-56
2023/01/26 06:04:24;;;;;;;14.50;9.15;;;0.10;99.90;;;;;;5075499;28;20024;-56
2023/01/26 06:06:55;;;;;;;11.50;8.27;;;0.00;99.90;;;;;;5075039;28;20040;-55
2023/01/26 06:09:20;;;;;;;14.32;9.23;;;0.00;99.90;;;;;;5075450;28;20041;-56
2023/01/26 06:11:47;;;;;;;14.88;10.38;;;0.00;99.90;;;;;;5074863;28;20040;-59
2023/01/26 06:14:13;;;;;;;20.13;15.57;;;0.00;99.90;;;;;;5074721;28;20090;-58
2023/01/26 06:16:39;;;;;;;70.43;63.22;;;0.00;99.90;;;;;;5074895;28;20036;-58
2023/01/26 06:19:05;;;;;;;18.50;13.30;;;0.00;99.90;;;;;;5074544;28;20017;-58
2023/01/26 06:21:31;;;;;;;18.40;14.07;;;-0.10;99.90;;;;;;5074848;28;20059;-57
2023/01/26 06:23:57;;;;;;;14.38;9.60;;;-0.10;99.90;;;;;;5073754;28;20055;-57
2023/01/26 06:26:23;;;;;;;12.95;8.82;;;-0.10;99.90;;;;;;5074759;28;20025;-58
2023/01/26 06:28:50;;;;;;;13.23;9.15;;;-0.10;99.90;;;;;;5074516;28;20017;-58
2023/01/26 06:31:15;;;;;;;22.00;10.05;;;-0.10;99.90;;;;;;5074300;28;20024;-57
2023/01/26 06:33:42;;;;;;;16.73;9.52;;;-0.20;99.90;;;;;;5073479;28;20031;-56
2023/01/26 06:36:10;;;;;;;14.65;9.68;;;-0.10;99.90;;;;;;5074503;28;20109;-58
2023/01/26 06:38:36;;;;;;;17.48;9.82;;;-0.10;99.90;;;;;;5074521;28;20051;-57
2023/01/26 06:41:04;;;;;;;16.10;10.70;;;-0.10;99.90;;;;;;5074452;28;20036;-58
2023/01/26 06:43:31;;;;;;;16.15;10.82;;;-0.10;99.90;;;;;;5074496;28;20024;-57
2023/01/26 06:45:57;;;;;;;17.67;10.05;;;-0.10;99.90;;;;;;5072854;28;20115;-54
2023/01/26 06:48:24;;;;;;;16.42;10.88;;;-0.10;99.90;;;;;;5074186;28;20081;-57
2023/01/26 06:50:56;;;;;;;16.08;10.43;;;-0.10;99.90;;;;;;5072958;28;20419;-58
2023/01/26 06:53:29;;;;;;;12.20;8.95;;;0.00;99.90;;;;;;5074106;28;20410;-51
2023/01/26 06:55:54;;;;;;;13.25;8.68;;;-0.10;99.90;;;;;;5074085;28;20039;-57
2023/01/26 06:58:20;;;;;;;13.88;8.35;;;-0.10;99.90;;;;;;5074257;28;20056;-59
2023/01/26 07:00:46;;;;;;;44.25;13.95;;;-0.10;99.90;;;;;;5073792;28;20035;-58
2023/01/26 07:03:12;;;;;;;16.88;9.40;;;0.00;99.90;;;;;;5073160;28;20059;-57
2023/01/26 07:05:37;;;;;;;15.85;10.20;;;0.00;99.90;;;;;;5072054;28;20067;-52
2023/01/26 07:08:05;;;;;;;16.58;10.20;;;0.00;99.90;;;;;;5073686;28;20054;-55
2023/01/26 07:10:31;;;;;;;14.52;8.05;;;0.00;99.90;;;;;;5073842;28;20545;-56
2023/01/26 07:12:56;;;;;;;13.55;9.52;;;0.20;99.90;;;;;;5073088;28;20021;-58
2023/01/26 07:15:22;;;;;;;13.70;8.93;;;0.20;99.90;;;;;;5073228;28;20494;-58
2023/01/26 07:17:48;;;;;;;13.93;8.45;;;0.20;99.90;;;;;;5073336;28;20533;-54
2023/01/26 07:20:13;;;;;;;18.42;10.02;;;0.20;99.90;;;;;;5073568;28;20456;-54
2023/01/26 07:22:39;;;;;;;13.38;8.88;;;0.10;99.90;;;;;;5074180;28;20031;-57
2023/01/26 07:25:05;;;;;;;13.98;8.93;;;0.00;99.90;;;;;;5073401;28;20074;-54
2023/01/26 07:27:31;;;;;;;17.77;9.07;;;0.10;99.90;;;;;;5073361;28;20052;-54
2023/01/26 07:29:56;;;;;;;14.75;9.30;;;0.10;99.90;;;;;;5073126;28;20060;-58
2023/01/26 07:32:22;;;;;;;14.45;9.07;;;0.00;99.90;;;;;;5072503;28;20078;-54
2023/01/26 07:34:47;;;;;;;13.20;9.02;;;0.10;99.90;;;;;;5072038;28;20111;-56
2023/01/26 07:37:13;;;;;;;14.57;10.23;;;0.20;99.90;;;;;;5069564;28;20082;-55
2023/01/26 07:39:39;;;;;;;16.35;10.02;;;0.20;99.90;;;;;;5072190;28;20025;-56
2023/01/26 07:42:05;;;;;;;13.82;9.95;;;0.20;99.90;;;;;;5070881;28;20031;-58
2023/01/26 07:44:30;;;;;;;14.05;8.45;;;0.20;99.90;;;;;;5072105;28;20115;-59
2023/01/26 07:46:57;;;;;;;16.60;10.27;;;0.10;99.90;;;;;;5071978;28;20103;-57
2023/01/26 07:49:22;;;;;;;16.80;9.88;;;0.10;99.90;;;;;;5070427;28;20032;-56
2023/01/26 07:51:48;;;;;;;17.02;10.32;;;0.10;99.90;;;;;;5070866;28;20495;-57
2023/01/26 07:54:14;;;;;;;15.43;10.02;;;0.20;99.90;;;;;;5071535;28;20021;-59
2023/01/26 07:56:39;;;;;;;20.17;10.20;;;0.20;99.90;;;;;;5071613;28;20016;-56
2023/01/26 07:59:05;;;;;;;18.75;10.70;;;0.20;99.90;;;;;;5071511;28;20024;-55
2023/01/26 08:01:31;;;;;;;17.38;10.10;;;0.20;99.90;;;;;;5072338;28;20024;-59
2023/01/26 08:03:56;;;;;;;15.25;10.57;;;0.20;99.90;;;;;;5071884;28;20098;-59
2023/01/26 08:06:23;;;;;;;17.80;10.00;;;0.10;99.90;;;;;;5072361;28;20112;-58
2023/01/26 08:08:50;;;;;;;13.00;9.90;;;0.10;99.90;;;;;;5072460;28;20036;-56
2023/01/26 08:11:18;;;;;;;36.58;10.55;;;0.20;99.90;;;;;;5071963;28;20028;-58
2023/01/26 08:13:43;;;;;;;13.95;9.45;;;0.30;99.90;;;;;;5071190;28;20017;-56
2023/01/26 08:16:11;;;;;;;17.90;10.93;;;0.30;99.90;;;;;;5070993;28;20036;-57
2023/01/26 08:18:42;;;;;;;18.00;10.15;;;0.40;99.90;;;;;;5072326;28;20391;-57
2023/01/26 08:21:09;;;;;;;22.92;10.27;;;0.40;99.90;;;;;;5072340;28;20091;-58
2023/01/26 08:23:35;;;;;;;19.55;9.80;;;0.40;99.90;;;;;;5072312;28;20027;-59
2023/01/26 08:26:05;;;;;;;12.45;8.43;;;0.50;99.90;;;;;;5072080;28;20669;-58
2023/01/26 08:28:31;;;;;;;14.18;9.25;;;0.50;99.90;;;;;;5071605;28;20031;-59
2023/01/26 08:31:06;;;;;;;14.68;9.07;;;0.50;99.90;;;;;;5070563;28;20085;-58
2023/01/26 08:33:32;;;;;;;11.98;8.38;;;0.60;99.90;;;;;;5071056;28;20101;-58
2023/01/26 08:36:05;;;;;;;14.95;9.98;;;0.60;99.90;;;;;;5070851;28;20024;-56
2023/01/26 08:38:32;;;;;;;13.90;9.63;;;0.50;99.90;;;;;;5070693;28;20032;-57
2023/01/26 08:41:02;;;;;;;14.32;8.60;;;0.60;99.90;;;;;;5070260;28;20032;-57
2023/01/26 08:43:28;;;;;;;12.25;8.50;;;0.60;99.90;;;;;;5071624;28;20033;-58
2023/01/26 08:45:54;;;;;;;11.73;8.60;;;0.50;99.90;;;;;;5071730;28;20570;-57
2023/01/26 08:48:19;;;;;;;11.98;8.73;;;0.50;99.90;;;;;;5071882;28;20108;-57
2023/01/26 08:50:45;;;;;;;13.25;9.20;;;0.50;99.90;;;;;;5071816;28;20028;-57
2023/01/26 08:53:12;;;;;;;11.73;8.02;;;0.50;99.90;;;;;;5071296;28;20029;-55
2023/01/26 08:55:37;;;;;;;12.98;10.35;;;0.60;99.90;;;;;;5071284;28;20104;-56
2023/01/26 08:58:03;;;;;;;12.00;7.88;;;0.70;99.90;;;;;;5071660;28;20146;-57
2023/01/26 09:00:29;;;;;;;19.10;14.98;;;0.60;99.90;;;;;;5071905;28;20024;-56
2023/01/26 09:03:04;;;;;;;18.58;16.63;;;0.60;99.90;;;;;;5071644;28;20039;-57
2023/01/26 09:05:35;;;;;;;14.07;9.63;;;0.70;99.90;;;;;;5071919;28;20028;-56
2023/01/26 09:08:02;;;;;;;11.60;7.85;;;0.70;99.90;;;;;;5071432;28;20028;-56
2023/01/26 09:10:28;;;;;;;14.45;9.93;;;0.80;99.90;;;;;;5071809;28;20085;-56
2023/01/26 09:12:55;;;;;;;11.98;8.10;;;0.70;99.90;;;;;;5071591;28;20052;-58
2023/01/26 09:15:21;;;;;;;10.50;7.22;;;0.70;99.90;;;;;;5071685;28;20525;-52
2023/01/26 09:17:50;;;;;;;11.50;8.07;;;0.80;99.90;;;;;;5071348;28;20024;-57
2023/01/26 09:20:16;;;;;;;12.15;8.85;;;0.70;99.90;;;;;;5070170;28;20017;-57
2023/01/26 09:22:42;;;;;;;16.98;9.50;;;0.70;99.90;;;;;;5071127;28;20082;-56
2023/01/26 09:25:08;;;;;;;12.98;9.88;;;0.70;99.90;;;;;;5071373;28;20025;-57
2023/01/26 09:27:34;;;;;;;12.35;9.13;;;0.70;99.90;;;;;;5070778;28;20551;-57
2023/01/26 09:29:59;;;;;;;10.88;8.05;;;0.70;99.90;;;;;;5070926;28;20077;-57
2023/01/26 09:32:25;;;;;;;10.95;9.38;;;0.80;99.90;;;;;;5071157;28;20033;-57
2023/01/26 09:34:51;;;;;;;12.23;8.23;;;0.90;99.90;;;;;;5070450;28;20124;-58
2023/01/26 09:37:17;;;;;;;9.73;7.50;;;1.10;99.90;;;;;;5070912;28;20437;-57
2023/01/26 09:39:42;;;;;;;13.68;9.27;;;1.10;99.90;;;;;;5071107;28;20372;-57
2023/01/26 09:42:11;;;;;;;16.58;12.75;;;1.20;99.90;;;;;;5069680;28;20035;-58
2023/01/26 09:44:49;;;;;;;14.07;9.68;;;1.20;99.90;;;;;;5071156;28;20052;-57
2023/01/26 09:47:25;;;;;;;11.18;8.00;;;1.20;99.90;;;;;;5070541;28;20055;-58
2023/01/26 09:50:03;;;;;;;12.98;7.72;;;1.20;99.90;;;;;;5070817;28;20055;-57
2023/01/26 09:52:36;;;;;;;12.48;8.77;;;1.30;99.90;;;;;;5070620;28;20032;-55
2023/01/26 09:55:11;;;;;;;11.10;8.32;;;1.30;99.90;;;;;;5071173;28;20385;-58
2023/01/26 09:57:49;;;;;;;10.02;8.07;;;1.50;99.90;;;;;;5071181;28;20388;-56
2023/01/26 10:00:18;;;;;;;12.57;9.60;;;1.60;99.90;;;;;;5071064;28;20075;-57
2023/01/26 10:02:55;;;;;;;13.88;9.20;;;1.60;99.90;;;;;;5071217;28;20569;-56
2023/01/26 10:05:39;;;;;;;11.05;7.78;;;1.50;99.90;;;;;;5071408;28;20074;-56
2023/01/26 10:08:12;;;;;;;13.73;10.15;;;1.70;99.90;;;;;;5070886;28;20032;-58
2023/01/26 10:10:51;;;;;;;11.25;8.20;;;1.60;99.90;;;;;;5070407;28;20069;-58
2023/01/26 10:13:18;;;;;;;16.42;9.45;;;1.50;99.90;;;;;;5070265;28;20016;-57
2023/01/26 10:15:55;;;;;;;12.45;9.38;;;1.50;99.90;;;;;;5070807;28;20040;-54
2023/01/26 10:18:29;;;;;;;12.18;9.15;;;1.40;99.90;;;;;;5071254;28;20016;-57
2023/01/26 10:20:57;;;;;;;13.18;8.82;;;1.40;99.90;;;;;;5071089;28;20024;-56
2023/01/26 10:23:32;;;;;;;13.23;8.30;;;1.50;99.90;;;;;;5071346;28;20110;-56
2023/01/26 10:26:09;;;;;;;13.18;8.73;;;1.60;99.90;;;;;;5068486;28;20021;-54
2023/01/26 10:28:35;;;;;;;10.50;7.88;;;1.60;99.90;;;;;;5070342;28;20028;-57
2023/01/26 10:31:03;;;;;;;13.00;8.65;;;1.50;99.90;;;;;;5070184;28;20048;-57
2023/01/26 10:33:36;;;;;;;13.45;9.35;;;1.60;99.90;;;;;;5070560;28;20025;-53
2023/01/26 10:36:06;;;;;;;14.68;9.85;;;1.80;99.90;;;;;;5070605;28;20031;-58
2023/01/26 10:38:31;;;;;;;11.38;7.63;;;1.80;99.90;;;;;;5062465;28;20029;-56
2023/01/26 10:41:22;;;;;;;13.23;8.85;;;1.80;99.90;;;;;;5064910;28;20039;-57
2023/01/26 10:44:18;;;;;;;11.38;7.80;;;1.80;99.90;;;;;;5058704;28;20057;-54
2023/01/26 10:46:43;;;;;;;15.85;10.23;;;1.80;99.90;;;;;;5058775;28;20041;-56
2023/01/26 10:49:10;;;;;;;14.75;9.00;;;1.80;99.90;;;;;;5071164;28;20352;-57
2023/01/26 10:51:38;;;;;;;11.43;9.10;;;1.80;99.90;;;;;;5083862;28;20039;-56
2023/01/26 10:54:23;;;;;;;17.67;10.55;;;1.60;99.90;;;;;;5083018;28;20048;-56
2023/01/26 10:56:56;;;;;;;13.40;9.68;;;1.40;99.90;;;;;;5082446;28;20024;-58
2023/01/26 10:59:39;;;;;;;12.32;9.25;;;1.40;99.90;;;;;;5075768;28;20036;-57
2023/01/26 11:02:11;;;;;;;8.05;7.25;;;1.50;99.90;;;;;;5083372;28;20481;-55
2023/01/26 11:04:37;;;;;;;17.05;9.05;;;1.40;99.90;;;;;;5082597;28;20363;-56
2023/01/26 11:07:25;;;;;;;14.82;10.10;;;1.30;99.90;;;;;;5062492;28;20044;-56
2023/01/26 11:09:51;;;;;;;13.30;8.65;;;1.30;99.90;;;;;;5065285;28;20043;-53
2023/01/26 11:12:18;;;;;;;12.23;9.30;;;1.20;99.90;;;;;;5082694;28;20040;-56
2023/01/26 11:15:14;;;;;;;14.35;8.73;;;1.30;99.90;;;;;;5083157;28;20028;-56
2023/01/26 11:18:01;;;;;;;13.05;8.50;;;1.40;99.90;;;;;;5083318;28;20032;-57
2023/01/26 11:20:45;;;;;;;14.52;9.88;;;1.40;99.90;;;;;;5082992;28;20103;-56
2023/01/26 11:23:46;;;;;;;13.25;9.80;;;1.40;99.90;;;;;;5068587;28;20063;-53
2023/01/26 11:26:49;;;;;;;12.82;9.57;;;1.40;99.90;;;;;;5061953;28;20036;-57
2023/01/26 11:29:26;;;;;;;9.73;7.78;;;1.30;99.90;;;;;;5062466;28;20036;-57
2023/01/26 11:32:24;;;;;;;14.00;9.57;;;1.40;99.90;;;;;;5062821;28;20446;-57
2023/01/26 11:35:11;;;;;;;16.23;10.57;;;1.30;99.90;;;;;;5061986;28;20035;-56
2023/01/26 11:37:46;;;;;;;19.08;11.90;;;1.30;99.90;;;;;;5061297;28;20045;-53
2023/01/26 11:40:23;;;;;;;14.20;10.07;;;1.30;99.90;;;;;;5062336;28;20032;-57
2023/01/26 11:42:56;;;;;;;14.05;9.18;;;1.30;99.90;;;;;;5062403;28;20039;-54
2023/01/26 11:45:37;;;;;;;13.07;9.70;;;1.30;99.90;;;;;;5064049;28;20997;-58
2023/01/26 11:48:11;;;;;;;13.35;10.07;;;1.30;99.90;;;;;;5082183;28;20036;-57
2023/01/26 11:50:44;;;;;;;12.88;9.40;;;1.20;99.90;;;;;;5082553;28;20524;-53
2023/01/26 11:53:55;;;;;;;16.58;11.38;;;1.20;99.90;;;;;;5092538;28;20093;-55
2023/01/26 11:56:32;;;;;;;19.38;12.73;;;1.20;99.90;;;;;;5091346;28;20056;-56
2023/01/26 11:59:05;;;;;;;48.50;18.80;;;1.20;99.90;;;;;;5091584;28;20024;-55
2023/01/26 12:01:36;;;;;;;16.58;10.70;;;1.10;99.90;;;;;;5093321;28;20024;-57
2023/01/26 12:04:02;;;;;;;165.02;63.00;;;1.00;99.90;;;;;;5092997;28;20123;-58
2023/01/26 12:06:33;;;;;;;25.55;14.07;;;0.90;99.90;;;;;;5093273;28;20111;-55
2023/01/26 12:09:04;;;;;;;132.20;67.93;;;0.80;99.90;;;;;;5092267;28;20043;-58
2023/01/26 12:11:45;;;;;;;39.03;23.60;;;0.80;99.90;;;;;;5092738;28;20140;-55
2023/01/26 12:14:30;;;;;;;30.52;19.90;;;0.80;99.90;;;;;;5092676;28;20452;-55
2023/01/26 12:17:28;;;;;;;39.20;23.88;;;0.90;99.90;;;;;;5092587;28;20025;-55
2023/01/26 12:20:03;;;;;;;14.65;12.02;;;0.80;99.90;;;;;;5092619;28;20035;-53
2023/01/26 12:22:48;;;;;;;12.20;9.60;;;0.90;99.90;;;;;;5093055;28;20122;-56
2023/01/26 12:25:27;;;;;;;24.15;13.73;;;1.00;99.90;;;;;;5093213;28;20032;-54
2023/01/26 12:28:14;;;;;;;14.48;9.98;;;1.00;99.90;;;;;;5092301;28;20016;-56
2023/01/26 12:31:05;;;;;;;12.20;9.40;;;0.90;99.90;;;;;;5092561;28;20367;-57
2023/01/26 12:33:33;;;;;;;14.95;11.70;;;0.90;99.90;;;;;;5092108;28;20032;-55
2023/01/26 12:36:10;;;;;;;14.88;10.50;;;0.80;99.90;;;;;;5092458;28;20344;-55
2023/01/26 12:38:42;;;;;;;14.23;10.55;;;0.90;99.90;;;;;;5092178;28;20399;-56
2023/01/26 12:41:32;;;;;;;12.80;9.40;;;0.90;99.90;;;;;;5092277;28;20028;-54
2023/01/26 12:44:00;;;;;;;13.27;9.80;;;1.00;99.90;;;;;;5092054;28;20039;-54
2023/01/26 12:46:31;;;;;;;17.63;10.25;;;1.10;99.90;;;;;;5092298;28;20028;-54
2023/01/26 12:49:12;;;;;;;14.88;9.02;;;1.00;99.90;;;;;;5092096;28;20024;-52
2023/01/26 12:51:48;;;;;;;15.63;10.23;;;1.00;99.90;;;;;;5091702;28;20111;-54
2023/01/26 12:54:32;;;;;;;15.00;11.40;;;0.90;99.90;;;;;;5092167;28;20032;-52
2023/01/26 12:57:00;;;;;;;17.20;11.00;;;0.80;99.90;;;;;;5091695;28;20112;-53
2023/01/26 12:59:38;;;;;;;14.48;10.23;;;0.70;99.90;;;;;;5092215;28;20066;-50
2023/01/26 13:02:21;;;;;;;14.48;10.80;;;0.80;99.90;;;;;;5090580;28;20027;-52
2023/01/26 13:04:47;;;;;;;17.27;11.20;;;0.80;99.90;;;;;;5091809;28;20016;-51
2023/01/26 13:07:32;;;;;;;13.45;9.95;;;0.60;99.90;;;;;;5091864;28;20020;-51
2023/01/26 13:10:13;;;;;;;18.38;11.57;;;0.60;99.90;;;;;;5089790;28;20482;-51
2023/01/26 13:12:47;;;;;;;18.35;12.25;;;0.60;99.90;;;;;;5092017;28;20450;-51
2023/01/26 13:15:15;;;;;;;15.55;10.98;;;0.70;99.90;;;;;;5091549;28;20098;-51
2023/01/26 13:17:51;;;;;;;17.42;11.18;;;0.60;99.90;;;;;;5090898;28;20024;-56
2023/01/26 13:20:42;;;;;;;17.00;11.73;;;0.70;99.90;;;;;;5090348;28;20020;-55
2023/01/26 13:23:27;;;;;;;15.63;8.93;;;0.80;99.90;;;;;;5090876;28;20039;-48
2023/01/26 13:26:22;;;;;;;18.70;14.95;;;0.70;99.90;;;;;;5090474;28;20028;-49
2023/01/26 13:28:48;;;;;;;16.60;12.70;;;0.60;99.90;;;;;;5089889;28;20047;-56
2023/01/26 13:31:30;;;;;;;14.85;11.00;;;0.70;99.90;;;;;;5091347;28;20093;-54
2023/01/26 13:33:59;;;;;;;19.27;10.38;;;0.70;99.90;;;;;;5091305;28;20016;-54
2023/01/26 13:36:29;;;;;;;16.50;10.98;;;0.70;99.90;;;;;;5091263;28;20023;-51
2023/01/26 13:39:09;;;;;;;16.92;11.35;;;0.70;99.90;;;;;;5091101;28;20021;-52
2023/01/26 13:41:46;;;;;;;21.52;13.40;;;0.80;99.90;;;;;;5091349;28;20107;-53